MSR6679 OKKK-HECA
Flight info
| Callsign | MSR6679 |
|---|---|
| Flight time | N/A |
| Altitude | 40000 |
| Route | KFR4F NIDAP L550 NOVPA N697 MENLI |
| Aircraft | A359/H-SDE2E3GHIJ3J4J5LM1ORWXY/LB1D1 |
Departure
| Time | 2026-04-27 07:27 |
|---|---|
| Airport | Kuwait International Airport (OKKK) |
Arrival
| Time | N/A |
|---|---|
| Airport | Cairo International Airport (HECA) |
| Time | Latitude | Longitude | Altitude | Speed | Heading |
|---|---|---|---|---|---|
| 2026-04-27 07:02 | 29.23869 | 47.97272 | 164 ft | 0 kts | 269° |
| 2026-04-27 07:17 | 29.23869 | 47.97273 | 167 ft | 2 kts | 269° |
| 2026-04-27 07:17 | 29.23870 | 47.97302 | 167 ft | 4 kts | 265° |
| 2026-04-27 07:17 | 29.23873 | 47.97331 | 168 ft | 4 kts | 254° |
| 2026-04-27 07:18 | 29.23882 | 47.97353 | 168 ft | 2 kts | 214° |
| 2026-04-27 07:18 | 29.23893 | 47.97358 | 166 ft | 2 kts | 186° |
| 2026-04-27 07:18 | 29.23905 | 47.97359 | 166 ft | 2 kts | 174° |
| 2026-04-27 07:18 | 29.23916 | 47.97357 | 166 ft | 2 kts | 169° |
| 2026-04-27 07:19 | 29.23926 | 47.97355 | 166 ft | 0 kts | 168° |
| 2026-04-27 07:21 | 29.23906 | 47.97360 | 166 ft | 8 kts | 166° |
| 2026-04-27 07:21 | 29.23834 | 47.97388 | 166 ft | 14 kts | 155° |
| 2026-04-27 07:21 | 29.23741 | 47.97441 | 167 ft | 11 kts | 154° |
| 2026-04-27 07:21 | 29.23666 | 47.97440 | 167 ft | 13 kts | 218° |
| 2026-04-27 07:22 | 29.23612 | 47.97332 | 165 ft | 19 kts | 247° |
| 2026-04-27 07:22 | 29.23549 | 47.97169 | 162 ft | 26 kts | 245° |
| 2026-04-27 07:22 | 29.23498 | 47.97013 | 160 ft | 22 kts | 265° |
| 2026-04-27 07:22 | 29.23521 | 47.96811 | 158 ft | 29 kts | 278° |
| 2026-04-27 07:23 | 29.23581 | 47.96651 | 156 ft | 13 kts | 327° |
| 2026-04-27 07:23 | 29.23691 | 47.96585 | 154 ft | 23 kts | 333° |
| 2026-04-27 07:23 | 29.23859 | 47.96501 | 152 ft | 30 kts | 336° |
| 2026-04-27 07:23 | 29.24031 | 47.96408 | 150 ft | 17 kts | 335° |
| 2026-04-27 07:24 | 29.24083 | 47.96369 | 148 ft | 10 kts | 307° |
| 2026-04-27 07:24 | 29.24076 | 47.96284 | 148 ft | 1 kts | 246° |
| 2026-04-27 07:25 | 29.24075 | 47.96284 | 148 ft | 1 kts | 246° |
| 2026-04-27 07:25 | 29.24058 | 47.96238 | 148 ft | 12 kts | 243° |
| 2026-04-27 07:26 | 29.24013 | 47.96181 | 149 ft | 4 kts | 189° |
| 2026-04-27 07:26 | 29.23963 | 47.96201 | 149 ft | 0 kts | 154° |
| 2026-04-27 07:26 | 29.23939 | 47.96214 | 149 ft | 21 kts | 155° |
| 2026-04-27 07:26 | 29.23562 | 47.96413 | 156 ft | 96 kts | 155° |
| 2026-04-27 07:27 | 29.22749 | 47.96839 | 165 ft | 160 kts | 156° |
| 2026-04-27 07:27 | 29.21621 | 47.97422 | 524 ft | 189 kts | 155° |
| 2026-04-27 07:27 | 29.20351 | 47.98105 | 1068 ft | 215 kts | 154° |
| 2026-04-27 07:27 | 29.18973 | 47.98869 | 1747 ft | 225 kts | 154° |
| 2026-04-27 07:28 | 29.17546 | 47.99682 | 2136 ft | 238 kts | 154° |
| 2026-04-27 07:28 | 29.16606 | 48.00218 | 2433 ft | 242 kts | 154° |
| 2026-04-27 07:28 | 29.15087 | 48.01086 | 3020 ft | 246 kts | 154° |
| 2026-04-27 07:28 | 29.13538 | 48.01991 | 3550 ft | 254 kts | 153° |
| 2026-04-27 07:29 | 29.11948 | 48.02937 | 3894 ft | 260 kts | 154° |
| 2026-04-27 07:29 | 29.10340 | 48.03896 | 3995 ft | 262 kts | 154° |
| 2026-04-27 07:29 | 29.08729 | 48.04867 | 4006 ft | 262 kts | 153° |
| 2026-04-27 07:29 | 29.07118 | 48.05842 | 4167 ft | 263 kts | 154° |
| 2026-04-27 07:30 | 29.05441 | 48.06616 | 4609 ft | 264 kts | 167° |
| 2026-04-27 07:30 | 29.03629 | 48.06792 | 5207 ft | 262 kts | 187° |
| 2026-04-27 07:30 | 29.01906 | 48.06153 | 5823 ft | 264 kts | 208° |
| 2026-04-27 07:30 | 29.00409 | 48.04937 | 6463 ft | 264 kts | 220° |
| 2026-04-27 07:31 | 28.99079 | 48.03472 | 7022 ft | 267 kts | 226° |
| 2026-04-27 07:31 | 28.97838 | 48.01885 | 7594 ft | 269 kts | 229° |
| 2026-04-27 07:31 | 28.96617 | 48.00253 | 8165 ft | 272 kts | 230° |
| 2026-04-27 07:31 | 28.95374 | 47.98605 | 8749 ft | 274 kts | 230° |
| 2026-04-27 07:32 | 28.94107 | 47.96968 | 9353 ft | 277 kts | 229° |
| 2026-04-27 07:32 | 28.92817 | 47.95343 | 9919 ft | 281 kts | 229° |
| 2026-04-27 07:32 | 28.91473 | 47.93686 | 10322 ft | 290 kts | 229° |
| 2026-04-27 07:32 | 28.90061 | 47.91958 | 10541 ft | 305 kts | 229° |
| 2026-04-27 07:33 | 28.88583 | 47.90157 | 10769 ft | 318 kts | 229° |
| 2026-04-27 07:33 | 28.87039 | 47.88275 | 10982 ft | 331 kts | 229° |
| 2026-04-27 07:33 | 28.85444 | 47.86322 | 11190 ft | 342 kts | 229° |
| 2026-04-27 07:33 | 28.83837 | 47.84365 | 11498 ft | 349 kts | 229° |
| 2026-04-27 07:34 | 28.82164 | 47.82338 | 11935 ft | 351 kts | 229° |
| 2026-04-27 07:34 | 28.80482 | 47.80309 | 12411 ft | 353 kts | 229° |
| 2026-04-27 07:34 | 28.78814 | 47.78298 | 12860 ft | 355 kts | 229° |
| 2026-04-27 07:34 | 28.77115 | 47.76250 | 13318 ft | 356 kts | 229° |
| 2026-04-27 07:35 | 28.75410 | 47.74196 | 13779 ft | 357 kts | 229° |
| 2026-04-27 07:35 | 28.73703 | 47.72138 | 14199 ft | 359 kts | 229° |
| 2026-04-27 07:35 | 28.71985 | 47.70068 | 14586 ft | 361 kts | 229° |
| 2026-04-27 07:35 | 28.70254 | 47.67983 | 14905 ft | 363 kts | 229° |
| 2026-04-27 07:36 | 28.68530 | 47.65881 | 15078 ft | 364 kts | 231° |
| 2026-04-27 07:36 | 28.67017 | 47.63561 | 15465 ft | 364 kts | 240° |
| 2026-04-27 07:36 | 28.65932 | 47.61006 | 15865 ft | 365 kts | 251° |
| 2026-04-27 07:36 | 28.65353 | 47.58195 | 16280 ft | 366 kts | 262° |
| 2026-04-27 07:37 | 28.65220 | 47.55290 | 16664 ft | 369 kts | 270° |
| 2026-04-27 07:37 | 28.65364 | 47.52372 | 17067 ft | 371 kts | 274° |
| 2026-04-27 07:37 | 28.65649 | 47.49432 | 17452 ft | 374 kts | 276° |
| 2026-04-27 07:37 | 28.65821 | 47.47900 | 17645 ft | 375 kts | 276° |
| 2026-04-27 07:38 | 28.65963 | 47.46662 | 17803 ft | 376 kts | 276° |
| 2026-04-27 07:38 | 28.66299 | 47.43701 | 18195 ft | 378 kts | 276° |
| 2026-04-27 07:38 | 28.66612 | 47.40719 | 18557 ft | 379 kts | 275° |
| 2026-04-27 07:38 | 28.66894 | 47.37773 | 18918 ft | 380 kts | 274° |
| 2026-04-27 07:39 | 28.67157 | 47.34782 | 19284 ft | 381 kts | 274° |
| 2026-04-27 07:39 | 28.67408 | 47.31774 | 19624 ft | 382 kts | 274° |
| 2026-04-27 07:39 | 28.67651 | 47.28757 | 19985 ft | 383 kts | 273° |
| 2026-04-27 07:39 | 28.67893 | 47.25732 | 20327 ft | 384 kts | 273° |
| 2026-04-27 07:40 | 28.68135 | 47.22703 | 20667 ft | 385 kts | 273° |
| 2026-04-27 07:40 | 28.68379 | 47.19654 | 21004 ft | 387 kts | 273° |
| 2026-04-27 07:40 | 28.68620 | 47.16646 | 21334 ft | 388 kts | 273° |
| 2026-04-27 07:40 | 28.68866 | 47.13583 | 21654 ft | 389 kts | 273° |
| 2026-04-27 07:41 | 28.69114 | 47.10505 | 21972 ft | 391 kts | 273° |
| 2026-04-27 07:41 | 28.69361 | 47.07416 | 22282 ft | 392 kts | 272° |
| 2026-04-27 07:41 | 28.69609 | 47.04318 | 22596 ft | 394 kts | 272° |
| 2026-04-27 07:41 | 28.69858 | 47.01203 | 22884 ft | 395 kts | 272° |
| 2026-04-27 07:42 | 28.70106 | 46.98082 | 23188 ft | 397 kts | 272° |
| 2026-04-27 07:42 | 28.70354 | 46.94955 | 23490 ft | 398 kts | 272° |
| 2026-04-27 07:42 | 28.70603 | 46.91807 | 23746 ft | 399 kts | 272° |
| 2026-04-27 07:42 | 28.70850 | 46.88676 | 24013 ft | 400 kts | 272° |
| 2026-04-27 07:43 | 28.71097 | 46.85559 | 24286 ft | 400 kts | 272° |
| 2026-04-27 07:43 | 28.71350 | 46.82409 | 24565 ft | 401 kts | 272° |
| 2026-04-27 07:43 | 28.71602 | 46.79254 | 24832 ft | 401 kts | 272° |
| 2026-04-27 07:43 | 28.71855 | 46.76075 | 25102 ft | 402 kts | 272° |
| 2026-04-27 07:44 | 28.72107 | 46.72893 | 25369 ft | 403 kts | 272° |
| 2026-04-27 07:44 | 28.72358 | 46.69708 | 25625 ft | 404 kts | 272° |
| 2026-04-27 07:44 | 28.72610 | 46.66517 | 25893 ft | 405 kts | 272° |
| 2026-04-27 07:44 | 28.72860 | 46.63324 | 26173 ft | 406 kts | 271° |
| 2026-04-27 07:45 | 28.73108 | 46.60157 | 26441 ft | 407 kts | 271° |
| 2026-04-27 07:45 | 28.73358 | 46.56962 | 26724 ft | 407 kts | 271° |
| 2026-04-27 07:45 | 28.73609 | 46.53739 | 27013 ft | 408 kts | 271° |
| 2026-04-27 07:45 | 28.73860 | 46.50520 | 27306 ft | 409 kts | 271° |
| 2026-04-27 07:46 | 28.74110 | 46.47283 | 27596 ft | 410 kts | 271° |
| 2026-04-27 07:46 | 28.74360 | 46.44047 | 27912 ft | 411 kts | 271° |
| 2026-04-27 07:46 | 28.74609 | 46.40804 | 28228 ft | 412 kts | 271° |
| 2026-04-27 07:46 | 28.74859 | 46.37547 | 28540 ft | 413 kts | 271° |
| 2026-04-27 07:47 | 28.75105 | 46.34323 | 28857 ft | 414 kts | 271° |
| 2026-04-27 07:47 | 28.75355 | 46.31065 | 29169 ft | 415 kts | 271° |
| 2026-04-27 07:47 | 28.75600 | 46.27770 | 29500 ft | 416 kts | 271° |
| 2026-04-27 07:47 | 28.75839 | 46.24481 | 29821 ft | 418 kts | 270° |
| 2026-04-27 07:48 | 28.76076 | 46.21175 | 30109 ft | 419 kts | 270° |
| 2026-04-27 07:48 | 28.76313 | 46.17870 | 30398 ft | 419 kts | 270° |
| 2026-04-27 07:48 | 28.76551 | 46.14555 | 30708 ft | 419 kts | 271° |
| 2026-04-27 07:48 | 28.76789 | 46.11245 | 31006 ft | 420 kts | 271° |
| 2026-04-27 07:49 | 28.77027 | 46.07934 | 31293 ft | 420 kts | 271° |
| 2026-04-27 07:49 | 28.77265 | 46.04604 | 31570 ft | 421 kts | 271° |
| 2026-04-27 07:49 | 28.77499 | 46.01326 | 31823 ft | 421 kts | 271° |
| 2026-04-27 07:49 | 28.77736 | 45.97996 | 32069 ft | 422 kts | 271° |
| 2026-04-27 07:50 | 28.77973 | 45.94653 | 32310 ft | 423 kts | 271° |
| 2026-04-27 07:50 | 28.78209 | 45.91316 | 32547 ft | 423 kts | 271° |
| 2026-04-27 07:50 | 28.78444 | 45.87970 | 32809 ft | 423 kts | 271° |
| 2026-04-27 07:50 | 28.78679 | 45.84616 | 32946 ft | 425 kts | 271° |
| 2026-04-27 07:51 | 28.78914 | 45.81252 | 33038 ft | 428 kts | 271° |
| 2026-04-27 07:51 | 28.79385 | 45.74462 | 33195 ft | 431 kts | 271° |
| 2026-04-27 07:52 | 28.79854 | 45.67689 | 33288 ft | 433 kts | 271° |
| 2026-04-27 07:52 | 28.80331 | 45.60845 | 33344 ft | 433 kts | 271° |
| 2026-04-27 07:53 | 28.80781 | 45.54298 | 33365 ft | 433 kts | 271° |
| 2026-04-27 07:53 | 28.81116 | 45.49374 | 33383 ft | 433 kts | 271° |
| 2026-04-27 07:54 | 28.81578 | 45.42561 | 33390 ft | 434 kts | 271° |
| 2026-04-27 07:54 | 28.82039 | 45.35717 | 33528 ft | 431 kts | 271° |
| 2026-04-27 07:54 | 28.82267 | 45.32322 | 33760 ft | 427 kts | 271° |
| 2026-04-27 07:55 | 28.82492 | 45.28980 | 34218 ft | 418 kts | 271° |
| 2026-04-27 07:55 | 28.82711 | 45.25712 | 34690 ft | 412 kts | 271° |
| 2026-04-27 07:55 | 28.82926 | 45.22464 | 35024 ft | 410 kts | 271° |
| 2026-04-27 07:55 | 28.83139 | 45.19225 | 35322 ft | 409 kts | 271° |
| 2026-04-27 07:56 | 28.83347 | 45.16037 | 35596 ft | 408 kts | 270° |
| 2026-04-27 07:56 | 28.83557 | 45.12816 | 35879 ft | 407 kts | 270° |
| 2026-04-27 07:56 | 28.83765 | 45.09603 | 36147 ft | 406 kts | 270° |
| 2026-04-27 07:56 | 28.83974 | 45.06392 | 36419 ft | 406 kts | 270° |
| 2026-04-27 07:57 | 28.84181 | 45.03183 | 36694 ft | 405 kts | 270° |
| 2026-04-27 07:57 | 28.84388 | 44.99978 | 36962 ft | 405 kts | 270° |
| 2026-04-27 07:57 | 28.84594 | 44.96783 | 37254 ft | 404 kts | 270° |
| 2026-04-27 07:57 | 28.84795 | 44.93632 | 37533 ft | 403 kts | 270° |
| 2026-04-27 07:58 | 28.84999 | 44.90450 | 37795 ft | 402 kts | 270° |
| 2026-04-27 07:58 | 28.85201 | 44.87269 | 38080 ft | 402 kts | 270° |
| 2026-04-27 07:58 | 28.85402 | 44.84097 | 38351 ft | 401 kts | 270° |
| 2026-04-27 07:58 | 28.85602 | 44.80929 | 38600 ft | 400 kts | 270° |
| 2026-04-27 07:59 | 28.85801 | 44.77768 | 38793 ft | 400 kts | 270° |
| 2026-04-27 07:59 | 28.86212 | 44.71437 | 39150 ft | 400 kts | 270° |
| 2026-04-27 07:59 | 28.86455 | 44.68281 | 39347 ft | 400 kts | 271° |
| 2026-04-27 08:00 | 28.86712 | 44.65116 | 39535 ft | 400 kts | 271° |
| 2026-04-27 08:00 | 28.86971 | 44.61998 | 39719 ft | 400 kts | 271° |
| 2026-04-27 08:00 | 28.87235 | 44.58843 | 39839 ft | 400 kts | 271° |
| 2026-04-27 08:00 | 28.87501 | 44.55680 | 39860 ft | 399 kts | 271° |
| 2026-04-27 08:01 | 28.88019 | 44.49340 | 39859 ft | 406 kts | 271° |
| 2026-04-27 08:01 | 28.88531 | 44.42874 | 39860 ft | 412 kts | 271° |
| 2026-04-27 08:02 | 28.89040 | 44.36383 | 39860 ft | 414 kts | 271° |
| 2026-04-27 08:02 | 28.89552 | 44.29841 | 39855 ft | 414 kts | 271° |
| 2026-04-27 08:03 | 28.90060 | 44.23296 | 39857 ft | 414 kts | 271° |
| 2026-04-27 08:03 | 28.90565 | 44.16747 | 39854 ft | 414 kts | 271° |
| 2026-04-27 08:04 | 28.91066 | 44.10196 | 39856 ft | 414 kts | 271° |
| 2026-04-27 08:04 | 28.91561 | 44.03693 | 39848 ft | 414 kts | 271° |
| 2026-04-27 08:05 | 28.92056 | 43.97139 | 39849 ft | 414 kts | 270° |
| 2026-04-27 08:05 | 28.92548 | 43.90591 | 39845 ft | 414 kts | 270° |
| 2026-04-27 08:06 | 28.93036 | 43.84037 | 39839 ft | 414 kts | 270° |
| 2026-04-27 08:06 | 28.93517 | 43.77549 | 39840 ft | 413 kts | 270° |
| 2026-04-27 08:07 | 28.93998 | 43.71007 | 39840 ft | 414 kts | 270° |
| 2026-04-27 08:07 | 28.94476 | 43.64456 | 39837 ft | 414 kts | 270° |
| 2026-04-27 08:08 | 28.94952 | 43.57921 | 39840 ft | 411 kts | 270° |
| 2026-04-27 08:08 | 28.95343 | 43.52534 | 39838 ft | 409 kts | 270° |
| 2026-04-27 08:09 | 28.96319 | 43.38861 | 39838 ft | 409 kts | 270° |
| 2026-04-27 08:10 | 28.96554 | 43.35531 | 39843 ft | 409 kts | 270° |
| 2026-04-27 08:10 | 28.96830 | 43.31592 | 39838 ft | 409 kts | 270° |
| 2026-04-27 08:11 | 28.97281 | 43.25161 | 39840 ft | 409 kts | 270° |
| 2026-04-27 08:11 | 28.97732 | 43.18687 | 39833 ft | 409 kts | 270° |
| 2026-04-27 08:12 | 28.98180 | 43.12214 | 39847 ft | 409 kts | 270° |
| 2026-04-27 08:12 | 28.98625 | 43.05736 | 39835 ft | 409 kts | 270° |
| 2026-04-27 08:13 | 28.99063 | 42.99301 | 39844 ft | 409 kts | 270° |
| 2026-04-27 08:13 | 28.99502 | 42.92825 | 39848 ft | 409 kts | 270° |